Terminal Aerodrome Forecast
Issued by NWS

Home | Current Version | Previous Version | Text Only | Print | Product List | Glossary On
Versions: 1 2 3 4 5 6 7 8 9 10 11 12 13 14 15 16
986
FTUS46 KLOX 052339
TAFPMD
TAF
KPMD 052339Z 0600/0624 24025G32KT P6SM VCTS SCT070 BKN090CB
     FM060400 24015G25KT P6SM VCTS SCT050 BKN070CB
     FM062000 24020G30KT P6SM SCT080 PROB30 0620/0624 -TSRA
      BKN070CB=

USA.gov is the U.S. government's official web portal to all federal, state and local government web resources and services.